createdAt,value
2022-07-30T00:00:42.761Z,150923.66
2022-07-30T00:01:44.757Z,150910.19
2022-07-30T00:02:46.734Z,150908.97
2022-07-30T00:03:48.854Z,150873.53
2022-07-30T00:04:53.451Z,150871.09
2022-07-30T00:05:55.781Z,150872.31
2022-07-30T00:06:58.317Z,150856.47
2022-07-30T00:08:00.583Z,150862.56
2022-07-30T00:09:02.588Z,150850.38
2022-07-30T00:10:04.907Z,150854.03
2022-07-30T00:11:06.955Z,150841.81
2022-07-30T00:12:09.133Z,150841.81
2022-07-30T00:13:11.085Z,150832.06
2022-07-30T00:14:16.417Z,150834.50
2022-07-30T00:15:18.495Z,150832.06
2022-07-30T00:16:20.543Z,150828.41
2022-07-30T00:17:22.568Z,150823.53
2022-07-30T00:18:24.557Z,150803.97
2022-07-30T00:19:27.312Z,150794.22
2022-07-30T00:20:29.412Z,150793.00
2022-07-30T00:21:38.711Z,150786.91
2022-07-30T00:22:41.307Z,150778.41
2022-07-30T00:23:43.378Z,150766.16
2022-07-30T00:25:04.190Z,150762.50
2022-07-30T00:26:06.189Z,150761.28
2022-07-30T00:27:09.312Z,150745.44
2022-07-30T00:28:11.353Z,150756.41
2022-07-30T00:29:13.321Z,150753.97
2022-07-30T00:30:15.627Z,150751.53
2022-07-30T00:31:18.587Z,150751.53
2022-07-30T00:32:20.594Z,150742.91
2022-07-30T00:33:22.539Z,150756.41
2022-07-30T00:34:24.577Z,150753.97
2022-07-30T00:35:27.661Z,150753.97
2022-07-30T00:36:29.883Z,150756.41
2022-07-30T00:37:31.853Z,150758.84
2022-07-30T00:38:33.858Z,150763.72
2022-07-30T00:39:35.885Z,150761.28
2022-07-30T00:40:38.056Z,150761.28
2022-07-30T00:41:56.253Z,150749.09
2022-07-30T00:42:58.257Z,150745.44
2022-07-30T00:44:00.220Z,150731.94
2022-07-30T00:45:02.650Z,150729.53
2022-07-30T00:46:04.745Z,150724.66
2022-07-30T00:47:06.862Z,150723.44
2022-07-30T00:48:08.878Z,150713.69
2022-07-30T00:49:12.313Z,150709.97
2022-07-30T00:50:16.393Z,150700.22
2022-07-30T00:51:18.495Z,150695.38
2022-07-30T00:52:22.114Z,150680.75
2022-07-30T00:53:24.210Z,150675.81
2022-07-30T00:54:26.246Z,150664.84
2022-07-30T00:55:29.091Z,150661.19
2022-07-30T00:56:31.068Z,150651.47
2022-07-30T00:57:33.223Z,150653.91
2022-07-30T00:58:36.968Z,150646.59
2022-07-30T00:59:39.003Z,150638.00
2022-07-30T01:00:41.118Z,150638.00
2022-07-30T01:01:43.308Z,150631.94
2022-07-30T01:02:46.500Z,150638.00
2022-07-30T01:03:48.489Z,150627.06
2022-07-30T01:04:50.505Z,150616.09
2022-07-30T01:05:54.784Z,150603.88
2022-07-30T01:06:57.395Z,150599.00
2022-07-30T01:07:59.557Z,150591.69
2022-07-30T01:09:01.561Z,150580.72
2022-07-30T01:10:04.142Z,150555.06
2022-07-30T01:11:06.213Z,150552.63
2022-07-30T01:12:10.072Z,150553.84
2022-07-30T01:13:12.860Z,150559.94
2022-07-30T01:14:15.044Z,150556.28
2022-07-30T01:15:17.883Z,150561.16
2022-07-30T01:16:19.870Z,150563.59
2022-07-30T01:17:21.924Z,150568.50
2022-07-30T01:18:25.296Z,150558.72
2022-07-30T01:19:48.822Z,150553.84
2022-07-30T01:21:02.176Z,150546.47
2022-07-30T01:22:10.671Z,150523.34
2022-07-30T01:23:21.997Z,150522.13
2022-07-30T01:24:40.927Z,150516.03
2022-07-30T01:25:50.913Z,150502.59
2022-07-30T01:26:54.370Z,150498.94
2022-07-30T01:28:07.430Z,150492.84
2022-07-30T01:29:10.793Z,150480.63
2022-07-30T01:30:14.308Z,150479.41
2022-07-30T01:31:17.731Z,150470.88
2022-07-30T01:32:21.852Z,150461.16
2022-07-30T01:33:24.534Z,150456.28
2022-07-30T01:34:31.120Z,150451.41
2022-07-30T01:35:34.372Z,150441.63
2022-07-30T01:36:36.939Z,150436.75
2022-07-30T01:37:39.719Z,150425.81
2022-07-30T01:38:43.109Z,150422.16
2022-07-30T01:39:45.324Z,150417.28
2022-07-30T01:40:48.100Z,150408.72
2022-07-30T01:41:50.726Z,150402.63
2022-07-30T01:42:58.488Z,150400.19
2022-07-30T01:44:01.978Z,150383.16
2022-07-30T01:45:05.812Z,150370.88
2022-07-30T01:46:09.167Z,150375.75
2022-07-30T01:47:13.814Z,150359.91
2022-07-30T01:48:18.266Z,150361.13
2022-07-30T01:49:21.639Z,150368.44
2022-07-30T01:50:23.980Z,150372.09
2022-07-30T01:51:26.117Z,150384.34
2022-07-30T01:52:36.842Z,150368.44
2022-07-30T01:53:39.653Z,150375.75
2022-07-30T01:54:44.381Z,150373.31
2022-07-30T01:55:47.032Z,150364.78
2022-07-30T01:56:50.086Z,150351.41
2022-07-30T01:57:53.946Z,150340.41
2022-07-30T01:58:57.130Z,150333.09
2022-07-30T02:00:03.093Z,150324.56
2022-07-30T02:01:18.587Z,150323.34
2022-07-30T02:02:20.817Z,150319.72
2022-07-30T02:03:22.957Z,150329.44
2022-07-30T02:04:25.395Z,150331.88
2022-07-30T02:05:29.609Z,150327.00
2022-07-30T02:06:44.871Z,150317.28
2022-07-30T02:07:54.758Z,150314.78
2022-07-30T02:08:59.426Z,150305.06
2022-07-30T02:10:11.428Z,150300.19
2022-07-30T02:11:36.065Z,150294.09
2022-07-30T02:12:42.934Z,150288.00
2022-07-30T02:13:47.496Z,150274.59
2022-07-30T02:14:52.351Z,150284.38
2022-07-30T02:15:57.294Z,150278.22
2022-07-30T02:17:02.294Z,150262.41
2022-07-30T02:18:14.994Z,150263.63
2022-07-30T02:19:18.342Z,150256.31
2022-07-30T02:20:25.239Z,150248.97
2022-07-30T02:21:36.588Z,150253.91
2022-07-30T02:22:40.753Z,150248.97
2022-07-30T02:23:44.305Z,150241.69
2022-07-30T02:24:47.906Z,150236.81
2022-07-30T02:25:52.229Z,150229.50
2022-07-30T02:27:02.264Z,150222.22
2022-07-30T02:28:07.552Z,150224.63
2022-07-30T02:29:11.657Z,150222.22
2022-07-30T02:30:15.115Z,150214.84
2022-07-30T02:31:20.882Z,150212.44
2022-07-30T02:32:24.589Z,150213.66
2022-07-30T02:33:33.405Z,150207.56
2022-07-30T02:34:38.999Z,150207.56
2022-07-30T02:35:41.373Z,150199.03
2022-07-30T02:36:44.657Z,150199.03
2022-07-30T02:37:48.399Z,150185.59
2022-07-30T02:38:51.723Z,150188.09
2022-07-30T02:39:55.765Z,150173.41
2022-07-30T02:40:59.220Z,150184.34
2022-07-30T02:42:02.452Z,150158.78
2022-07-30T02:43:05.159Z,150167.31
2022-07-30T02:44:08.330Z,150161.22
2022-07-30T02:45:11.838Z,150156.34
2022-07-30T02:46:15.242Z,150152.72
2022-07-30T02:47:38.871Z,150158.78
2022-07-30T02:48:41.269Z,150156.34
2022-07-30T02:49:44.432Z,150151.44
2022-07-30T02:50:47.822Z,150141.72
2022-07-30T02:51:50.778Z,150135.63
2022-07-30T02:52:54.310Z,150124.69
2022-07-30T02:53:56.874Z,150124.69
2022-07-30T02:55:00.268Z,150128.34
2022-07-30T02:56:05.237Z,150134.41
2022-07-30T02:57:08.672Z,150125.91
2022-07-30T02:58:11.515Z,150114.91
2022-07-30T02:59:14.183Z,150106.38
2022-07-30T03:00:16.892Z,150107.59
2022-07-30T03:01:20.167Z,150108.81
2022-07-30T03:02:28.925Z,150088.13
2022-07-30T03:03:32.780Z,150085.66
2022-07-30T03:04:35.748Z,150074.72
2022-07-30T03:05:39.716Z,150075.94
2022-07-30T03:06:43.183Z,150066.19
2022-07-30T03:07:46.270Z,150061.34
2022-07-30T03:08:48.694Z,150069.84
2022-07-30T03:09:52.738Z,150066.19
2022-07-30T03:10:57.447Z,150062.56
2022-07-30T03:12:01.962Z,150067.41
2022-07-30T03:13:05.762Z,150067.41
2022-07-30T03:14:11.103Z,150069.84
2022-07-30T03:15:13.495Z,150063.75
2022-07-30T03:16:17.256Z,150061.34
2022-07-30T03:17:20.259Z,150049.13
2022-07-30T03:18:23.450Z,150051.56
2022-07-30T03:19:27.639Z,150038.16
2022-07-30T03:20:30.768Z,150039.38
2022-07-30T03:21:35.759Z,150034.53
2022-07-30T03:22:42.472Z,150036.97
2022-07-30T03:23:45.358Z,150033.31
2022-07-30T03:24:48.657Z,150032.09
2022-07-30T03:26:10.967Z,150033.31
2022-07-30T03:27:13.845Z,150041.81
2022-07-30T03:28:16.583Z,150041.81
2022-07-30T03:29:21.768Z,150019.88
2022-07-30T03:30:24.762Z,150041.81
2022-07-30T03:31:28.502Z,150047.91
2022-07-30T03:32:39.222Z,150055.25
2022-07-30T03:33:41.875Z,150055.25
2022-07-30T03:34:44.302Z,150054.00
2022-07-30T03:35:49.757Z,150052.78
2022-07-30T03:36:52.755Z,150064.97
2022-07-30T03:37:55.929Z,150060.13
2022-07-30T03:38:58.097Z,150054.00
2022-07-30T03:40:00.798Z,150044.25
2022-07-30T03:41:03.316Z,150044.25
2022-07-30T03:42:06.534Z,150049.13
2022-07-30T03:43:18.552Z,150046.69
2022-07-30T03:44:33.893Z,150044.25
2022-07-30T03:45:38.112Z,150045.47
2022-07-30T03:46:42.257Z,150049.13
2022-07-30T03:47:46.327Z,150051.56
2022-07-30T03:48:48.919Z,150049.13
2022-07-30T03:49:52.348Z,150039.38
2022-07-30T03:50:54.766Z,150041.81
2022-07-30T03:51:57.325Z,150039.38
2022-07-30T03:53:00.570Z,150049.13
2022-07-30T03:54:06.459Z,150044.25
2022-07-30T03:55:15.535Z,150052.78
2022-07-30T03:56:23.412Z,150056.47
2022-07-30T03:57:31.281Z,150038.16
2022-07-30T03:58:34.118Z,150032.09
2022-07-30T03:59:40.234Z,150039.38
2022-07-30T04:00:42.989Z,150044.25
2022-07-30T04:01:45.945Z,150032.09
2022-07-30T04:02:59.345Z,150041.81
2022-07-30T04:04:06.529Z,150019.88
2022-07-30T04:05:08.686Z,150017.44
2022-07-30T04:06:10.691Z,150002.84
2022-07-30T04:07:12.764Z,150010.16
2022-07-30T04:08:14.735Z,150011.38
2022-07-30T04:09:19.425Z,150012.59
2022-07-30T04:10:22.666Z,150008.94
2022-07-30T04:11:40.483Z,150005.28
2022-07-30T04:12:45.759Z,149994.34
2022-07-30T04:13:48.748Z,149990.69
2022-07-30T04:14:53.517Z,149988.22
2022-07-30T04:16:37.389Z,149984.53
2022-07-30T04:17:24.608Z,149988.22
2022-07-30T04:18:27.097Z,149985.72
2022-07-30T04:19:34.508Z,149985.72
2022-07-30T04:20:39.996Z,149988.22
2022-07-30T04:21:42.506Z,149995.56
2022-07-30T04:22:45.647Z,149998.00
2022-07-30T04:24:03.623Z,150004.06
2022-07-30T04:25:08.747Z,149994.34
2022-07-30T04:26:11.563Z,150005.28
2022-07-30T04:27:14.036Z,150012.59
2022-07-30T04:28:16.258Z,150017.44
2022-07-30T04:29:22.684Z,150033.31
2022-07-30T04:30:27.596Z,150036.97
2022-07-30T04:31:29.896Z,150036.97
2022-07-30T04:32:38.071Z,150047.91
2022-07-30T04:34:04.690Z,150052.78
2022-07-30T04:35:13.414Z,150061.34
2022-07-30T04:36:48.144Z,150073.50
2022-07-30T04:37:50.092Z,150071.06
2022-07-30T04:38:52.270Z,150089.34
2022-07-30T04:39:54.929Z,150093.00
2022-07-30T04:40:56.907Z,150101.53
2022-07-30T04:41:59.929Z,150117.34
2022-07-30T04:43:01.878Z,150122.25
2022-07-30T04:44:04.074Z,150136.84
2022-07-30T04:45:07.845Z,150153.94
2022-07-30T04:46:39.733Z,150163.66
2022-07-30T04:47:42.048Z,150175.81
2022-07-30T04:48:56.645Z,150177.03
2022-07-30T04:50:01.907Z,150199.03
2022-07-30T04:51:05.532Z,150181.91
2022-07-30T04:52:10.726Z,150192.97
2022-07-30T04:53:13.082Z,150211.22
2022-07-30T04:54:21.215Z,150217.28
2022-07-30T04:55:23.558Z,150238.03
2022-07-30T04:56:29.294Z,150241.69
2022-07-30T04:57:33.882Z,150241.69
2022-07-30T04:58:37.790Z,150261.19
2022-07-30T04:59:40.047Z,150281.88
2022-07-30T05:00:42.250Z,150285.59
2022-07-30T05:01:52.409Z,150305.06
2022-07-30T05:02:55.691Z,150311.13
2022-07-30T05:03:57.835Z,150300.19
2022-07-30T05:05:01.130Z,150330.66
2022-07-30T05:06:03.298Z,150356.28
2022-07-30T05:07:11.580Z,150362.34
2022-07-30T05:08:13.882Z,150388.00
2022-07-30T05:09:16.301Z,150386.78
2022-07-30T05:10:19.964Z,150407.50
2022-07-30T05:11:22.289Z,150416.06
2022-07-30T05:12:33.897Z,150433.09
2022-07-30T05:13:38.299Z,150444.06
2022-07-30T05:14:47.895Z,150458.72
2022-07-30T05:15:50.789Z,150478.19
2022-07-30T05:16:54.960Z,150488.00
2022-07-30T05:17:58.787Z,150500.16
2022-07-30T05:19:00.838Z,150500.16
2022-07-30T05:20:04.155Z,150536.75
2022-07-30T05:21:15.657Z,150550.19
2022-07-30T05:22:20.454Z,150570.94
2022-07-30T05:23:22.599Z,150588.03
2022-07-30T05:25:03.356Z,150609.94
2022-07-30T05:26:21.307Z,150619.75
2022-07-30T05:27:25.588Z,150639.22
2022-07-30T05:28:27.765Z,150658.78
2022-07-30T05:29:30.467Z,150677.03
2022-07-30T05:30:43.445Z,150695.38
2022-07-30T05:31:52.377Z,150666.06
2022-07-30T05:32:56.066Z,150700.22
2022-07-30T05:34:02.777Z,150729.53
2022-07-30T05:35:12.107Z,150731.94
2022-07-30T05:36:14.321Z,150753.97
2022-07-30T05:37:16.334Z,150773.47
2022-07-30T05:38:18.386Z,150793.00
2022-07-30T05:39:57.417Z,150815.00
2022-07-30T05:41:31.791Z,150823.53
2022-07-30T05:42:44.804Z,150824.75
2022-07-30T05:43:46.798Z,150822.31
2022-07-30T05:44:58.095Z,150839.38
2022-07-30T05:46:00.203Z,150876.03
2022-07-30T05:47:02.654Z,150883.34
2022-07-30T05:48:05.169Z,150904.06
2022-07-30T05:49:07.478Z,150924.88
2022-07-30T05:50:09.521Z,150917.56
2022-07-30T05:51:11.574Z,150960.25
2022-07-30T05:52:13.635Z,150944.41
2022-07-30T05:53:16.398Z,150949.28
2022-07-30T05:54:36.942Z,151002.97
2022-07-30T05:55:38.873Z,151022.53
2022-07-30T05:57:01.839Z,151049.38
2022-07-30T05:58:08.593Z,151059.13
2022-07-30T05:59:10.725Z,151073.81
2022-07-30T06:00:30.995Z,151101.91
2022-07-30T06:01:33.775Z,151130.00
2022-07-30T06:02:42.565Z,151121.47
2022-07-30T06:04:02.900Z,151149.56
2022-07-30T06:05:19.089Z,151121.47
2022-07-30T06:06:23.369Z,151171.50
2022-07-30T06:07:26.304Z,151139.81
2022-07-30T06:08:30.561Z,151120.25
2022-07-30T06:09:37.142Z,151105.56
2022-07-30T06:10:40.779Z,151081.13
2022-07-30T06:11:44.630Z,151142.25
2022-07-30T06:12:46.993Z,151203.25
2022-07-30T06:13:49.970Z,151269.28
2022-07-30T06:14:52.694Z,151369.50
2022-07-30T06:16:00.796Z,151447.72
2022-07-30T06:17:03.179Z,151535.72
2022-07-30T06:18:23.244Z,151644.53
2022-07-30T06:19:27.234Z,151781.53
2022-07-30T06:20:29.417Z,151876.97
2022-07-30T06:22:05.750Z,151988.25
2022-07-30T06:23:07.522Z,152144.94
2022-07-30T06:24:25.644Z,152038.47
2022-07-30T06:25:45.334Z,152069.06
2022-07-30T06:26:47.472Z,151963.81
2022-07-30T06:27:49.653Z,151861.00
2022-07-30T06:28:51.642Z,151876.97
2022-07-30T06:30:04.992Z,151829.19
2022-07-30T06:31:07.472Z,151797.41
2022-07-30T06:32:09.595Z,151670.22
2022-07-30T06:33:11.958Z,151646.97
2022-07-30T06:34:13.993Z,151622.53
2022-07-30T06:35:17.924Z,151665.28
2022-07-30T06:36:20.100Z,151689.75
2022-07-30T06:38:01.793Z,151495.34
2022-07-30T06:39:09.613Z,151533.25
2022-07-30T06:40:34.546Z,151530.78
2022-07-30T06:41:50.545Z,151576.09
2022-07-30T06:42:52.510Z,151536.94
2022-07-30T06:44:09.159Z,151508.81
2022-07-30T06:45:29.605Z,151508.81
2022-07-30T06:46:55.274Z,151532.00
2022-07-30T06:48:00.677Z,151573.66
2022-07-30T06:49:06.077Z,151552.81
2022-07-30T06:50:08.832Z,151599.28
2022-07-30T06:51:11.573Z,151631.06
2022-07-30T06:52:18.651Z,151618.84
2022-07-30T06:53:25.416Z,151613.97
2022-07-30T06:54:46.596Z,151650.66
2022-07-30T06:55:58.328Z,151721.59
2022-07-30T06:57:06.422Z,151653.09
2022-07-30T06:58:08.630Z,151666.56
2022-07-30T06:59:30.904Z,151731.38
2022-07-30T07:00:55.132Z,151694.66
2022-07-30T07:01:57.380Z,151673.88
2022-07-30T07:02:59.513Z,151719.09
2022-07-30T07:04:10.682Z,151772.97
2022-07-30T07:05:14.494Z,151819.41
2022-07-30T07:06:20.880Z,151847.56
2022-07-30T07:07:40.418Z,151879.41
2022-07-30T07:08:44.891Z,151906.31
2022-07-30T07:09:50.956Z,151812.09
2022-07-30T07:11:13.398Z,151719.09
2022-07-30T07:12:30.438Z,151785.19
2022-07-30T07:13:32.546Z,151814.53
2022-07-30T07:14:36.757Z,151802.31
2022-07-30T07:15:38.719Z,151869.59
2022-07-30T07:16:45.007Z,151891.63
2022-07-30T07:18:09.943Z,151951.56
2022-07-30T07:19:14.388Z,151983.38
2022-07-30T07:20:36.770Z,151894.06
2022-07-30T07:21:40.707Z,151870.84
2022-07-30T07:22:42.841Z,151841.44
2022-07-30T07:23:49.974Z,151858.56
2022-07-30T07:25:10.612Z,151725.25
2022-07-30T07:26:12.746Z,151810.88
2022-07-30T07:27:15.888Z,151799.88
2022-07-30T07:28:19.999Z,151865.94
2022-07-30T07:29:22.534Z,151858.56
2022-07-30T07:30:24.660Z,151919.75
2022-07-30T07:32:05.821Z,151947.91
2022-07-30T07:32:49.070Z,151961.34
2022-07-30T07:33:54.272Z,152025.00
2022-07-30T07:34:56.347Z,152082.50
2022-07-30T07:35:58.394Z,151974.81
2022-07-30T07:37:04.401Z,152075.19
2022-07-30T07:38:06.420Z,152061.75
2022-07-30T07:39:09.826Z,152122.88
2022-07-30T07:40:16.895Z,152165.81
2022-07-30T07:41:19.040Z,152051.94
2022-07-30T07:42:22.083Z,151991.94
2022-07-30T07:43:25.345Z,152017.66
2022-07-30T07:44:29.995Z,152076.41
2022-07-30T07:45:32.056Z,152108.22
2022-07-30T07:46:39.927Z,151950.34
2022-07-30T07:47:51.533Z,151922.19
2022-07-30T07:49:18.407Z,151951.56
2022-07-30T07:50:27.451Z,152002.97
2022-07-30T07:51:46.789Z,151875.75
2022-07-30T07:52:52.233Z,152028.72
2022-07-30T07:54:11.906Z,152094.78
2022-07-30T07:55:16.452Z,152016.44
2022-07-30T07:56:19.011Z,151925.88
2022-07-30T07:57:21.709Z,151896.50
2022-07-30T07:58:26.126Z,152000.53
2022-07-30T07:59:36.401Z,151993.16
2022-07-30T08:00:46.996Z,151963.81
2022-07-30T08:01:49.925Z,152044.59
2022-07-30T08:02:58.185Z,152042.16
2022-07-30T08:04:00.418Z,152072.75
2022-07-30T08:05:58.209Z,152198.84
2022-07-30T08:07:19.969Z,152344.53
2022-07-30T08:08:57.430Z,152201.28
2022-07-30T08:10:17.695Z,152198.84
2022-07-30T08:11:38.272Z,152264.94
2022-07-30T08:12:58.536Z,152312.69
2022-07-30T08:14:18.890Z,152389.81
2022-07-30T08:15:39.128Z,152487.81
2022-07-30T08:17:01.676Z,152549.06
2022-07-30T08:18:21.963Z,152377.59
2022-07-30T08:19:34.122Z,152392.31
2022-07-30T08:20:47.566Z,152269.81
2022-07-30T08:21:54.231Z,152296.75
2022-07-30T08:22:56.661Z,152130.25
2022-07-30T08:24:01.169Z,152274.72
2022-07-30T08:25:04.018Z,152367.81
2022-07-30T08:26:06.214Z,152451.09
2022-07-30T08:27:08.934Z,152508.66
2022-07-30T08:29:13.039Z,152343.31
2022-07-30T08:30:19.958Z,152171.91
2022-07-30T08:31:22.194Z,152255.09
2022-07-30T08:32:24.598Z,152322.47
2022-07-30T08:33:27.542Z,152344.53
2022-07-30T08:34:29.874Z,152441.31
2022-07-30T08:35:33.115Z,152615.22
2022-07-30T08:36:35.364Z,152656.91
2022-07-30T08:37:40.937Z,152941.25
2022-07-30T08:38:43.427Z,152997.69
2022-07-30T08:39:45.869Z,153024.66
2022-07-30T08:40:48.319Z,153403.69
2022-07-30T08:41:51.702Z,153441.69
2022-07-30T08:42:54.014Z,153601.28
2022-07-30T08:44:00.389Z,153649.19
2022-07-30T08:45:03.218Z,153569.34
2022-07-30T08:46:09.946Z,153713.00
2022-07-30T08:47:26.175Z,153996.66
2022-07-30T08:48:47.107Z,154043.38
2022-07-30T08:49:51.508Z,154203.06
2022-07-30T08:50:59.498Z,154049.53
2022-07-30T08:52:22.218Z,153935.28
2022-07-30T08:53:34.777Z,154171.13
2022-07-30T08:54:40.513Z,154269.44
2022-07-30T08:55:43.081Z,154415.72
2022-07-30T08:56:45.781Z,154373.91
2022-07-30T08:57:48.761Z,154207.97
2022-07-30T08:58:51.476Z,154413.25
2022-07-30T09:00:01.340Z,154185.91
2022-07-30T09:01:04.859Z,154445.19
2022-07-30T09:02:12.076Z,154521.41
2022-07-30T09:03:27.991Z,154654.19
2022-07-30T09:04:33.834Z,154798.09
2022-07-30T09:05:36.120Z,154795.59
2022-07-30T09:06:38.414Z,154579.19
2022-07-30T09:07:41.537Z,154530.00
2022-07-30T09:08:49.224Z,154547.22
2022-07-30T09:09:52.847Z,154158.88
2022-07-30T09:10:55.467Z,154115.84
2022-07-30T09:11:57.678Z,154043.38
2022-07-30T09:13:00.902Z,153924.19
2022-07-30T09:14:14.454Z,154091.28
2022-07-30T09:15:20.370Z,153873.84
2022-07-30T09:16:26.831Z,154017.56
2022-07-30T09:17:57.937Z,154054.44
2022-07-30T09:19:12.740Z,154324.75
2022-07-30T09:20:16.037Z,154259.59
2022-07-30T09:21:26.488Z,154549.69
2022-07-30T09:22:56.220Z,154652.97
2022-07-30T09:24:16.947Z,154113.41
2022-07-30T09:25:49.259Z,154033.50
2022-07-30T09:27:10.114Z,153737.56
2022-07-30T09:28:34.370Z,154080.25
2022-07-30T09:29:59.674Z,153754.75
2022-07-30T09:31:23.784Z,153856.69
2022-07-30T09:32:55.873Z,154107.22
2022-07-30T09:34:04.221Z,154140.38
2022-07-30T09:35:25.096Z,153943.84
2022-07-30T09:36:45.514Z,154350.53
2022-07-30T09:38:06.777Z,154473.44
2022-07-30T09:39:40.631Z,154188.34
2022-07-30T09:41:07.976Z,154242.38
2022-07-30T09:42:27.878Z,154203.06
2022-07-30T09:43:41.267Z,154131.78
2022-07-30T09:44:48.122Z,153900.84
2022-07-30T09:45:57.865Z,154325.97
2022-07-30T09:47:02.774Z,154238.69
2022-07-30T09:48:23.065Z,154178.53
2022-07-30T09:49:27.638Z,154303.84
2022-07-30T09:50:30.995Z,154010.16
2022-07-30T09:52:00.077Z,154259.59
2022-07-30T09:53:09.526Z,154179.75
2022-07-30T09:54:15.449Z,154491.94
2022-07-30T09:55:34.794Z,154507.91
2022-07-30T09:56:37.790Z,154286.66
2022-07-30T09:57:58.973Z,154630.81
2022-07-30T09:59:02.721Z,154628.38
2022-07-30T10:00:23.943Z,154800.53
2022-07-30T10:01:56.280Z,154898.91
2022-07-30T10:03:34.507Z,155158.53
2022-07-30T10:05:15.713Z,155330.84
2022-07-30T10:06:18.142Z,155088.38
2022-07-30T10:07:25.381Z,155172.09
2022-07-30T10:08:46.667Z,154945.69
2022-07-30T10:09:53.325Z,154714.47
2022-07-30T10:10:56.174Z,154805.47
2022-07-30T10:12:02.675Z,154897.69
2022-07-30T10:13:08.924Z,154784.53
2022-07-30T10:14:16.917Z,154879.25
2022-07-30T10:15:21.245Z,155053.94
2022-07-30T10:16:27.474Z,155389.91
2022-07-30T10:17:34.257Z,155377.59
2022-07-30T10:18:57.467Z,155229.91
2022-07-30T10:20:18.711Z,155241.00
2022-07-30T10:21:20.971Z,155353.00
2022-07-30T10:23:07.642Z,155599.22
2022-07-30T10:24:11.914Z,155361.59
2022-07-30T10:25:32.694Z,155548.72
2022-07-30T10:27:16.258Z,155546.28
2022-07-30T10:28:44.299Z,155263.13
2022-07-30T10:29:47.767Z,155561.03
2022-07-30T10:30:51.614Z,155505.69
2022-07-30T10:31:54.547Z,155346.84
2022-07-30T10:32:58.656Z,155684.16
2022-07-30T10:34:02.609Z,155995.78
2022-07-30T10:35:06.229Z,156125.13
2022-07-30T10:36:11.789Z,156236.03
2022-07-30T10:37:16.696Z,155829.47
2022-07-30T10:38:24.017Z,155761.72
2022-07-30T10:39:37.271Z,155292.66
2022-07-30T10:40:49.927Z,154901.41
2022-07-30T10:42:08.910Z,154799.31
2022-07-30T10:43:48.330Z,154793.13
2022-07-30T10:45:23.163Z,154704.63
2022-07-30T10:46:56.604Z,154874.34
2022-07-30T10:48:04.069Z,155060.09
2022-07-30T10:49:18.815Z,155373.91
2022-07-30T10:50:26.661Z,155469.94
2022-07-30T10:51:49.874Z,154974.00
2022-07-30T10:52:56.958Z,154892.75
2022-07-30T10:53:59.185Z,154684.94
2022-07-30T10:55:01.607Z,154575.50
2022-07-30T10:56:25.490Z,154550.91
2022-07-30T10:57:32.752Z,154494.38
2022-07-30T10:59:05.579Z,154902.63
2022-07-30T11:00:12.083Z,154989.94
2022-07-30T11:01:17.976Z,155031.81
2022-07-30T11:02:22.193Z,155081.00
2022-07-30T11:03:41.558Z,154913.72
2022-07-30T11:04:47.818Z,154478.38
2022-07-30T11:05:52.888Z,154488.25
2022-07-30T11:07:27.717Z,154650.50
2022-07-30T11:08:42.772Z,154860.78
2022-07-30T11:09:45.389Z,154566.88
2022-07-30T11:11:59.075Z,154959.22
2022-07-30T11:12:46.064Z,154560.72
2022-07-30T11:14:02.373Z,155019.53
2022-07-30T11:15:07.315Z,155189.28
2022-07-30T11:16:21.745Z,155103.13
2022-07-30T11:17:24.158Z,154994.88
2022-07-30T11:18:28.829Z,155301.25
2022-07-30T11:19:55.560Z,155408.41
2022-07-30T11:21:21.308Z,155652.16
2022-07-30T11:22:38.803Z,155775.31
2022-07-30T11:23:41.622Z,155506.91
2022-07-30T11:24:45.649Z,155354.22
2022-07-30T11:25:50.114Z,155318.53
2022-07-30T11:26:53.191Z,155349.31
2022-07-30T11:27:56.849Z,155538.91
2022-07-30T11:28:59.123Z,155450.25
2022-07-30T11:30:04.382Z,155174.53
2022-07-30T11:31:54.523Z,155162.22
2022-07-30T11:33:06.379Z,155132.69
2022-07-30T11:34:20.624Z,155425.63
2022-07-30T11:35:34.356Z,155412.09
2022-07-30T11:36:37.667Z,155553.66
2022-07-30T11:38:22.195Z,155433.00
2022-07-30T11:39:29.842Z,155286.50
2022-07-30T11:40:46.736Z,155417.03
2022-07-30T11:42:25.414Z,155300.03
2022-07-30T11:43:36.077Z,155254.53
2022-07-30T11:44:39.055Z,155046.59
2022-07-30T11:45:41.471Z,155211.47
2022-07-30T11:46:48.933Z,155218.84
2022-07-30T11:47:54.238Z,155404.72
2022-07-30T11:49:08.353Z,155472.41
2022-07-30T11:50:19.622Z,155649.69
2022-07-30T11:51:22.026Z,154993.63
2022-07-30T11:52:24.253Z,154772.22
2022-07-30T11:53:26.503Z,155253.28
2022-07-30T11:54:28.829Z,155245.94
2022-07-30T11:55:34.358Z,155177.00
2022-07-30T11:56:37.037Z,155066.22
2022-07-30T11:57:40.473Z,154894.00
2022-07-30T11:58:44.268Z,154871.84
2022-07-30T11:59:58.943Z,154978.91
2022-07-30T12:01:09.353Z,155161.00
2022-07-30T12:02:11.866Z,155265.59
2022-07-30T12:03:16.129Z,155460.06
2022-07-30T12:04:19.072Z,154950.63
2022-07-30T12:05:26.902Z,155152.38
2022-07-30T12:06:31.943Z,155458.84
2022-07-30T12:07:35.277Z,154960.44
2022-07-30T12:08:42.268Z,155282.81
2022-07-30T12:09:44.491Z,155370.25
2022-07-30T12:11:00.109Z,155559.78
2022-07-30T12:12:03.491Z,155309.94
2022-07-30T12:13:11.915Z,154559.50
2022-07-30T12:14:14.102Z,154502.97
2022-07-30T12:15:33.266Z,154740.31
2022-07-30T12:16:35.462Z,154629.59
2022-07-30T12:17:45.116Z,154878.03
2022-07-30T12:18:47.832Z,154621.00
2022-07-30T12:19:50.309Z,154522.66
2022-07-30T12:21:04.342Z,154436.56
2022-07-30T12:22:06.556Z,154364.03
2022-07-30T12:23:15.638Z,154542.34
2022-07-30T12:24:26.618Z,154617.31
2022-07-30T12:25:29.598Z,154628.38
2022-07-30T12:26:34.392Z,154436.56
2022-07-30T12:27:37.332Z,154559.50
2022-07-30T12:28:39.594Z,154557.06
2022-07-30T12:29:41.854Z,154702.16
2022-07-30T12:30:44.355Z,154699.69
2022-07-30T12:31:46.781Z,154650.50
2022-07-30T12:32:49.282Z,154491.94
2022-07-30T12:33:51.546Z,154650.50
2022-07-30T12:34:58.099Z,154720.63
2022-07-30T12:36:01.084Z,154552.16
2022-07-30T12:37:10.454Z,154597.66
2022-07-30T12:38:13.604Z,154267.00
2022-07-30T12:39:26.398Z,154110.94
2022-07-30T12:40:28.639Z,153805.06
2022-07-30T12:41:44.911Z,153828.44
2022-07-30T12:42:54.285Z,153819.88
2022-07-30T12:43:56.545Z,153595.16
2022-07-30T12:44:59.902Z,153974.56
2022-07-30T12:46:02.139Z,154134.25
2022-07-30T12:47:06.932Z,154392.34
2022-07-30T12:48:12.948Z,154573.00
2022-07-30T12:49:22.731Z,154515.28
2022-07-30T12:50:27.122Z,154265.75
2022-07-30T12:51:35.045Z,154187.13
2022-07-30T12:52:40.301Z,153937.72
2022-07-30T12:53:42.816Z,153954.94
2022-07-30T12:54:44.995Z,153871.38
2022-07-30T12:55:47.215Z,153958.63
2022-07-30T12:57:04.579Z,154188.34